Time;durP1;ratioP1;P1;durP2;ratioP2;P2;SDS_P1;SDS_P2;PMS_P1;PMS_P2;Temp;Humidity;BMP_temperature;BMP_pressure;BME280_temperature;BME280_humidity;BME280_pressure;Samples;Min_cycle;Max_cycle;Signal;HPM_P1;HPM_P2
2023/07/07 04:00:14;;;;;;;6.40;3.50;;;15.30;99.90;;;;;;6021979;23;20020;31
2023/07/07 04:02:39;;;;;;;5.90;3.80;;;15.20;99.90;;;;;;4937113;29;20044;-68
2023/07/07 04:05:05;;;;;;;5.80;3.53;;;15.10;99.90;;;;;;4938280;29;20059;-68
2023/07/07 04:07:30;;;;;;;7.05;3.40;;;15.10;99.90;;;;;;4939990;29;20032;-69
2023/07/07 04:09:56;;;;;;;5.47;3.30;;;15.20;99.90;;;;;;4937333;29;20167;-68
2023/07/07 04:12:22;;;;;;;5.57;3.50;;;15.10;99.90;;;;;;4935535;29;20464;-71
2023/07/07 04:14:47;;;;;;;5.15;3.70;;;15.10;99.90;;;;;;4936897;29;20448;-70
2023/07/07 04:17:13;;;;;;;7.37;3.93;;;15.20;99.90;;;;;;4939182;29;20063;-70
2023/07/07 04:19:38;;;;;;;6.95;3.55;;;15.20;99.90;;;;;;4940475;29;20028;-70
2023/07/07 04:22:04;;;;;;;5.57;3.00;;;15.30;99.90;;;;;;4940622;29;20043;-69
2023/07/07 04:24:29;;;;;;;6.00;3.40;;;15.40;99.90;;;;;;4922518;29;20338;-69
2023/07/07 04:26:55;;;;;;;3.93;2.93;;;15.40;99.90;;;;;;4923014;29;20583;-69
2023/07/07 04:29:21;;;;;;;9.52;3.60;;;15.40;99.90;;;;;;4941080;29;20488;-70
2023/07/07 04:31:46;;;;;;;5.80;3.60;;;15.40;99.90;;;;;;4974636;23;20045;-66
2023/07/07 04:34:14;;;;;;;5.15;3.58;;;15.30;99.90;;;;;;4976236;28;20078;-67
2023/07/07 04:36:40;;;;;;;6.45;3.65;;;15.30;99.90;;;;;;4974169;28;20475;-66
2023/07/07 04:39:06;;;;;;;6.33;3.87;;;15.40;99.90;;;;;;4976704;28;20042;-67
2023/07/07 04:41:31;;;;;;;4.53;3.22;;;15.40;99.90;;;;;;4976374;28;20278;-67
2023/07/07 04:43:59;;;;;;;6.72;3.47;;;15.50;99.90;;;;;;4977540;28;20042;-66
2023/07/07 04:46:31;;;;;;;7.60;4.05;;;15.50;99.90;;;;;;4973359;28;20027;-66
2023/07/07 04:48:56;;;;;;;6.63;3.10;;;15.50;99.90;;;;;;4976973;28;20034;-67
2023/07/07 04:51:22;;;;;;;4.43;3.38;;;15.60;99.90;;;;;;4971659;28;20027;-67
2023/07/07 04:53:47;;;;;;;5.73;3.27;;;15.50;99.90;;;;;;4973177;28;20046;-67
2023/07/07 04:56:19;;;;;;;7.63;3.72;;;15.60;99.90;;;;;;4970576;28;20289;-67
2023/07/07 04:58:48;;;;;;;7.05;4.00;;;15.60;99.90;;;;;;4975929;28;20027;-67
2023/07/07 05:01:21;;;;;;;7.20;3.30;;;15.70;99.90;;;;;;4985197;28;20503;-66
2023/07/07 05:03:50;;;;;;;5.53;3.90;;;15.80;99.90;;;;;;4996891;28;20487;-66
2023/07/07 05:06:15;;;;;;;6.82;3.40;;;15.90;99.90;;;;;;4968745;28;20043;-67
2023/07/07 05:08:42;;;;;;;5.43;3.00;;;16.00;99.90;;;;;;4995213;28;20479;-68
2023/07/07 05:11:11;;;;;;;5.13;3.25;;;16.10;99.90;;;;;;4980362;28;20046;-66
2023/07/07 05:13:36;;;;;;;7.03;3.38;;;16.10;99.90;;;;;;4978609;28;20021;-66
2023/07/07 05:16:04;;;;;;;6.57;3.23;;;16.20;99.90;;;;;;4997384;28;20034;-68
2023/07/07 05:18:30;;;;;;;5.20;3.17;;;16.30;99.90;;;;;;4996720;28;20030;-66
2023/07/07 05:20:56;;;;;;;5.57;3.10;;;16.40;99.90;;;;;;4993166;28;20452;-68
2023/07/07 05:23:22;;;;;;;7.25;3.17;;;16.40;99.90;;;;;;4950058;28;20155;-66
2023/07/07 05:25:47;;;;;;;4.93;3.30;;;16.40;99.90;;;;;;4968710;28;20389;-67
2023/07/07 05:28:13;;;;;;;6.53;3.13;;;16.50;99.90;;;;;;4976407;28;20034;-69
2023/07/07 05:30:39;;;;;;;7.70;3.97;;;16.60;99.90;;;;;;4970279;28;20023;-67
2023/07/07 05:33:05;;;;;;;6.63;3.42;;;16.70;99.90;;;;;;4975090;28;20034;-67
2023/07/07 05:35:30;;;;;;;6.82;3.17;;;16.80;99.90;;;;;;4975044;28;20530;-67
2023/07/07 05:37:56;;;;;;;6.95;3.08;;;16.90;99.90;;;;;;4976252;28;20054;-69
2023/07/07 05:40:21;;;;;;;7.32;3.50;;;17.00;99.90;;;;;;4964458;28;20035;-67
2023/07/07 05:42:47;;;;;;;7.07;3.40;;;17.00;99.90;;;;;;4975083;28;20034;-66
2023/07/07 05:45:13;;;;;;;5.67;3.00;;;17.10;99.90;;;;;;4976197;28;20109;-70
2023/07/07 05:47:38;;;;;;;5.03;3.30;;;17.10;99.90;;;;;;4977063;28;20829;-70
2023/07/07 05:50:04;;;;;;;9.97;3.87;;;17.20;99.90;;;;;;4975930;28;20110;-68
2023/07/07 05:52:30;;;;;;;4.72;3.10;;;17.30;99.90;;;;;;4974634;28;20286;-69
2023/07/07 05:54:57;;;;;;;8.98;3.50;;;17.30;99.90;;;;;;4976634;28;20038;-68
2023/07/07 05:57:23;;;;;;;5.65;3.17;;;17.50;99.90;;;;;;4974878;28;20046;-67
2023/07/07 05:59:48;;;;;;;7.93;3.10;;;17.50;99.90;;;;;;4974989;28;20431;-66
2023/07/07 06:02:14;;;;;;;5.97;3.23;;;17.60;99.90;;;;;;4976064;28;20301;-66
2023/07/07 06:04:39;;;;;;;5.83;3.60;;;17.60;99.90;;;;;;4976074;28;20460;-66
2023/07/07 06:07:05;;;;;;;5.18;3.25;;;17.60;99.90;;;;;;4976141;28;20262;-67
2023/07/07 06:09:31;;;;;;;6.88;3.60;;;17.70;99.90;;;;;;4976001;28;20102;-66
2023/07/07 06:11:56;;;;;;;5.25;3.35;;;17.70;99.90;;;;;;4952127;29;20455;-67
2023/07/07 06:14:22;;;;;;;5.07;3.00;;;17.80;99.90;;;;;;4970241;28;20106;-66
2023/07/07 06:16:47;;;;;;;8.00;3.40;;;17.90;99.90;;;;;;4975936;28;20130;-66
2023/07/07 06:19:13;;;;;;;6.25;3.20;;;18.00;99.90;;;;;;4976016;28;20131;-66
2023/07/07 06:21:38;;;;;;;5.57;3.20;;;18.20;99.90;;;;;;4975425;28;20488;-67
2023/07/07 06:24:04;;;;;;;8.87;3.00;;;18.30;99.90;;;;;;4975814;28;20286;-66
2023/07/07 06:26:30;;;;;;;7.55;3.08;;;18.40;99.90;;;;;;4958445;28;20416;-66
2023/07/07 06:28:56;;;;;;;5.60;3.03;;;18.60;99.90;;;;;;4975646;28;20074;-66
2023/07/07 06:31:22;;;;;;;;;;;18.70;99.90;;;;;;4976067;28;20026;-66
2023/07/07 06:33:48;;;;;;;7.75;2.90;;;18.80;99.90;;;;;;4954173;28;19917;-65
2023/07/07 06:36:14;;;;;;;;;;;18.80;99.90;;;;;;4978370;28;20034;-66
2023/07/07 06:38:40;;;;;;;10.07;5.05;;;18.90;99.90;;;;;;4975772;28;19906;-67
2023/07/07 06:41:07;;;;;;;7.22;3.40;;;19.10;99.90;;;;;;4975814;28;20023;-66
2023/07/07 06:43:32;;;;;;;11.05;3.53;;;19.10;99.90;;;;;;4975258;28;20033;-67
2023/07/07 06:45:58;;;;;;;6.50;3.43;;;19.30;99.90;;;;;;4975045;28;20414;-67
2023/07/07 06:48:23;;;;;;;5.70;3.35;;;19.30;99.90;;;;;;4957943;28;20266;-66
2023/07/07 06:50:49;;;;;;;5.38;3.17;;;19.50;99.90;;;;;;4975055;28;20034;-67
2023/07/07 06:53:15;;;;;;;7.85;3.58;;;19.50;99.90;;;;;;4956732;28;20480;-67
2023/07/07 06:55:40;;;;;;;6.63;3.20;;;19.60;99.90;;;;;;4975228;28;20030;-66
2023/07/07 06:58:10;;;;;;;4.40;3.00;;;19.80;99.90;;;;;;4975069;28;20480;-67
2023/07/07 07:00:35;;;;;;;6.20;3.17;;;20.00;99.90;;;;;;4957837;28;20027;-66
2023/07/07 07:03:01;;;;;;;5.50;3.00;;;20.10;99.90;;;;;;4974998;28;20034;-67
2023/07/07 07:05:26;;;;;;;5.70;2.92;;;20.40;98.40;;;;;;4975050;28;20045;-67
2023/07/07 07:07:52;;;;;;;6.80;3.00;;;20.50;98.10;;;;;;4974645;28;20102;-66
2023/07/07 07:10:17;;;;;;;6.40;3.10;;;20.50;98.30;;;;;;4974942;28;20101;-67
2023/07/07 07:12:43;;;;;;;6.85;3.10;;;20.70;97.40;;;;;;4974568;28;20093;-66
2023/07/07 07:15:09;;;;;;;5.78;2.88;;;20.80;97.40;;;;;;4994545;28;20448;-66
2023/07/07 07:17:35;;;;;;;6.95;3.38;;;20.90;97.10;;;;;;4994510;28;20054;-66
2023/07/07 07:20:01;;;;;;;7.47;3.10;;;21.00;96.80;;;;;;4994108;28;20085;-67
2023/07/07 07:22:26;;;;;;;7.45;3.22;;;21.10;97.00;;;;;;4961456;28;20504;-65
2023/07/07 07:24:52;;;;;;;5.97;3.00;;;21.30;96.00;;;;;;4972818;28;20030;-67
2023/07/07 07:27:17;;;;;;;6.15;2.95;;;21.40;95.70;;;;;;4964555;28;20031;-67
2023/07/07 07:29:43;;;;;;;5.57;2.95;;;21.50;95.70;;;;;;4967244;28;20023;-67
2023/07/07 07:32:09;;;;;;;5.65;2.75;;;21.60;95.20;;;;;;4987183;28;20117;-68
2023/07/07 07:34:35;;;;;;;6.03;2.58;;;21.90;95.10;;;;;;4968201;28;20073;-66
2023/07/07 07:37:01;;;;;;;7.15;3.03;;;21.90;94.80;;;;;;4969095;28;20031;-66
2023/07/07 07:39:27;;;;;;;4.57;2.53;;;22.10;94.90;;;;;;4982203;28;20027;-67
2023/07/07 07:41:55;;;;;;;7.05;2.90;;;22.10;94.20;;;;;;4968421;28;20042;-66
2023/07/07 07:44:22;;;;;;;7.68;3.53;;;22.20;94.20;;;;;;4994036;28;20399;-68
2023/07/07 07:46:49;;;;;;;7.53;3.20;;;22.40;93.70;;;;;;4994019;28;20034;-67
2023/07/07 07:49:15;;;;;;;6.00;2.67;;;22.50;93.90;;;;;;4993732;28;20026;-67
2023/07/07 07:51:41;;;;;;;;;;;22.60;93.40;;;;;;4988797;28;20379;-67
2023/07/07 07:54:09;;;;;;;8.00;2.97;;;22.90;93.00;;;;;;4980819;28;20001;-67
2023/07/07 07:56:35;;;;;;;6.10;3.10;;;23.20;92.60;;;;;;4981004;28;20106;-68
2023/07/07 07:59:01;;;;;;;11.38;3.65;;;23.40;92.30;;;;;;4981602;28;20451;-66
2023/07/07 08:01:27;;;;;;;5.97;3.38;;;23.50;91.70;;;;;;4979371;28;20117;-68
2023/07/07 08:03:53;;;;;;;;;;;23.60;91.80;;;;;;4985811;28;20114;-67
2023/07/07 08:06:18;;;;;;;7.05;3.38;;;23.80;91.70;;;;;;4970646;28;19910;-67
2023/07/07 08:08:44;;;;;;;;;;;23.90;91.40;;;;;;4963985;28;20027;-67
2023/07/07 08:11:13;;;;;;;4.50;2.60;;;24.10;91.00;;;;;;4980675;28;19906;-68
2023/07/07 08:13:39;;;;;;;7.32;3.22;;;24.40;90.60;;;;;;4979368;28;20391;-67
2023/07/07 08:16:04;;;;;;;;;;;25.30;89.80;;;;;;4984346;28;20019;-68
2023/07/07 08:18:30;;;;;;;5.18;3.25;;;27.40;86.30;;;;;;4961239;28;19906;-67
2023/07/07 08:20:55;;;;;;;4.45;2.72;;;30.00;78.90;;;;;;4973470;28;20086;-68
2023/07/07 08:23:21;;;;;;;4.72;2.70;;;31.80;73.30;;;;;;4988273;28;20491;-67
2023/07/07 08:25:48;;;;;;;8.45;3.28;;;33.70;69.30;;;;;;4980474;28;20034;-67
2023/07/07 08:28:14;;;;;;;9.63;3.00;;;35.60;65.20;;;;;;4962830;28;20037;-67
2023/07/07 08:30:40;;;;;;;4.95;3.40;;;36.30;61.20;;;;;;4991297;28;20027;-66
2023/07/07 08:33:05;;;;;;;5.35;3.03;;;36.50;60.20;;;;;;4982468;28;20038;-68
2023/07/07 08:35:31;;;;;;;7.75;3.50;;;37.10;58.20;;;;;;4999921;28;20085;-67
2023/07/07 08:37:56;;;;;;;9.75;3.50;;;37.60;57.70;;;;;;4999610;28;20413;-67
2023/07/07 08:40:24;;;;;;;9.77;3.80;;;38.30;56.60;;;;;;4994523;28;20065;-68
2023/07/07 08:42:51;;;;;;;4.07;3.28;;;38.20;55.30;;;;;;4963868;28;20026;-67
2023/07/07 08:45:20;;;;;;;5.57;3.92;;;38.60;54.70;;;;;;4980297;28;20081;-69
2023/07/07 08:48:01;;;;;;;5.10;3.00;;;39.00;54.70;;;;;;4963447;28;20023;-68
2023/07/07 08:50:42;;;;;;;4.15;2.85;;;40.30;53.10;;;;;;4980416;28;20022;-68
2023/07/07 08:53:08;;;;;;;8.60;3.95;;;41.70;52.20;;;;;;4960706;28;20027;-68
2023/07/07 08:56:00;;;;;;;5.47;3.50;;;41.90;51.60;;;;;;4960951;28;20030;-67
2023/07/07 08:58:44;;;;;;;4.45;3.38;;;41.70;50.20;;;;;;4961566;28;20082;-67
2023/07/07 09:01:23;;;;;;;3.47;3.08;;;41.00;51.40;;;;;;4962191;28;20031;-68
2023/07/07 09:04:18;;;;;;;3.80;3.30;;;41.80;51.00;;;;;;4958029;28;20055;-68
2023/07/07 09:06:51;;;;;;;;;;;42.60;50.00;;;;;;4957022;28;20118;-67
2023/07/07 09:09:42;;;;;;;3.78;3.35;;;41.50;50.00;;;;;;4956666;29;19906;-67
2023/07/07 09:12:21;;;;;;;7.82;3.80;;;42.40;49.80;;;;;;4958141;28;20563;-67
2023/07/07 09:14:50;;;;;;;4.72;3.72;;;43.20;48.90;;;;;;4957792;29;20035;-68
2023/07/07 09:17:25;;;;;;;5.18;3.35;;;43.30;48.20;;;;;;4957986;29;20031;-67
2023/07/07 09:19:53;;;;;;;4.85;3.15;;;43.20;48.50;;;;;;4958293;29;20019;-68
2023/07/07 09:22:31;;;;;;;5.32;3.92;;;43.60;48.20;;;;;;4971412;28;20077;-67
2023/07/07 09:25:15;;;;;;;3.80;3.42;;;43.50;48.20;;;;;;4976917;28;20031;-67
2023/07/07 09:27:54;;;;;;;5.32;3.67;;;43.40;48.20;;;;;;4959631;28;20029;-67
2023/07/07 09:30:35;;;;;;;4.53;4.13;;;43.40;47.40;;;;;;4976890;28;20035;-67
2023/07/07 09:33:00;;;;;;;5.57;3.60;;;42.40;47.90;;;;;;4976494;28;20109;-67
2023/07/07 09:35:34;;;;;;;4.20;3.53;;;42.80;48.50;;;;;;4975324;28;20471;-67
2023/07/07 09:38:20;;;;;;;5.93;3.88;;;43.30;47.90;;;;;;4976363;28;20030;-67
2023/07/07 09:41:09;;;;;;;5.88;4.05;;;43.00;47.50;;;;;;4976606;28;20026;-67
2023/07/07 09:44:35;;;;;;;4.65;3.60;;;42.70;47.70;;;;;;4976725;28;20019;-67
2023/07/07 09:47:29;;;;;;;7.22;3.85;;;42.40;47.70;;;;;;4976200;28;20065;-67
2023/07/07 09:49:59;;;;;;;9.15;3.65;;;42.70;48.20;;;;;;4976712;28;20029;-67
2023/07/07 09:52:36;;;;;;;7.55;3.97;;;43.20;46.90;;;;;;4975800;28;20030;-68
2023/07/07 09:55:16;;;;;;;4.00;3.53;;;42.50;46.80;;;;;;4976307;28;20023;-68
2023/07/07 09:57:56;;;;;;;4.03;3.55;;;42.00;48.10;;;;;;4976719;28;20545;-67
2023/07/07 10:00:23;;;;;;;4.93;3.88;;;42.50;47.60;;;;;;4976941;28;20069;-68
2023/07/07 10:02:49;;;;;;;5.07;4.10;;;42.30;47.60;;;;;;4976428;28;20026;-67
2023/07/07 10:05:23;;;;;;;5.80;3.60;;;42.70;47.90;;;;;;4976457;28;20081;-67
2023/07/07 10:07:49;;;;;;;5.85;4.28;;;42.10;47.60;;;;;;4958914;28;20027;-67
2023/07/07 10:10:15;;;;;;;4.50;3.80;;;42.90;47.80;;;;;;4976165;28;20030;-69
2023/07/07 10:12:41;;;;;;;4.22;3.83;;;43.30;47.70;;;;;;4976387;28;20550;-67
2023/07/07 10:15:22;;;;;;;5.28;3.92;;;44.00;47.20;;;;;;4957986;28;20022;-68
2023/07/07 10:18:05;;;;;;;7.80;4.70;;;44.50;46.50;;;;;;4958366;28;20037;-67
2023/07/07 10:20:31;;;;;;;5.30;4.15;;;44.50;46.20;;;;;;4969491;28;20027;-66
2023/07/07 10:22:56;;;;;;;5.20;4.20;;;44.30;46.20;;;;;;4977967;28;20038;-67
2023/07/07 10:25:22;;;;;;;6.18;4.35;;;43.90;46.50;;;;;;4967783;28;20041;-67
2023/07/07 10:27:53;;;;;;;6.50;4.45;;;43.90;46.40;;;;;;4954964;29;20061;-67
2023/07/07 10:30:19;;;;;;;7.43;4.85;;;43.80;45.40;;;;;;4956275;29;20039;-69
2023/07/07 10:32:46;;;;;;;5.63;4.55;;;43.60;46.40;;;;;;4969164;28;20050;-67
2023/07/07 10:35:18;;;;;;;5.70;3.83;;;41.90;46.80;;;;;;4956103;29;20035;-67
2023/07/07 10:37:46;;;;;;;5.35;4.28;;;42.30;47.00;;;;;;5000561;23;20408;-69
2023/07/07 10:40:21;;;;;;;6.07;4.28;;;42.80;45.90;;;;;;4975355;28;20023;-71
2023/07/07 10:42:53;;;;;;;6.28;4.45;;;42.90;47.20;;;;;;4975497;28;20473;-70
2023/07/07 10:45:21;;;;;;;6.05;4.40;;;43.40;46.40;;;;;;4973732;28;20034;-69
2023/07/07 10:47:51;;;;;;;5.53;4.97;;;43.70;46.10;;;;;;4958039;28;20026;-70
2023/07/07 10:50:23;;;;;;;6.10;5.00;;;43.80;45.80;;;;;;4974765;28;20428;-70
2023/07/07 10:53:08;;;;;;;5.43;4.65;;;43.90;46.20;;;;;;4974629;28;20031;-71
2023/07/07 10:55:44;;;;;;;5.88;5.00;;;44.20;46.00;;;;;;4962063;28;20029;-70
2023/07/07 10:58:38;;;;;;;5.15;4.40;;;43.90;45.70;;;;;;4974611;28;20391;-71
2023/07/07 11:01:21;;;;;;;5.65;4.72;;;43.90;45.60;;;;;;4954278;29;20025;-71
2023/07/07 11:04:03;;;;;;;6.32;5.47;;;43.60;46.00;;;;;;4955473;29;20023;-71
2023/07/07 11:07:05;;;;;;;5.47;4.97;;;43.10;45.60;;;;;;4955635;28;20019;-69
2023/07/07 11:09:37;;;;;;;6.55;4.93;;;42.70;45.50;;;;;;4955536;29;20042;-69
2023/07/07 11:12:10;;;;;;;6.55;5.55;;;41.80;45.90;;;;;;4955646;29;20031;-69
2023/07/07 11:14:51;;;;;;;7.68;5.93;;;41.80;46.00;;;;;;4954128;29;20034;-69
2023/07/07 11:17:30;;;;;;;6.10;5.50;;;41.80;46.20;;;;;;4938002;29;20024;-70
2023/07/07 11:20:24;;;;;;;5.90;5.30;;;40.00;45.90;;;;;;4968963;28;20046;-69
2023/07/07 11:23:24;;;;;;;7.20;5.53;;;37.20;47.70;;;;;;4974478;28;20037;-70
2023/07/07 11:26:03;;;;;;;8.85;5.80;;;36.00;49.60;;;;;;4956480;28;20026;-69
2023/07/07 11:29:02;;;;;;;6.93;5.70;;;35.10;50.20;;;;;;4974501;28;20029;-69
2023/07/07 11:31:38;;;;;;;10.43;8.32;;;34.40;50.70;;;;;;4974540;28;20081;-69
2023/07/07 11:34:28;;;;;;;28.95;25.60;;;33.70;50.30;;;;;;4974446;28;20052;-69
2023/07/07 11:37:14;;;;;;;10.63;7.10;;;33.20;52.30;;;;;;4956633;28;20031;-69
2023/07/07 11:39:48;;;;;;;10.30;6.80;;;32.80;51.40;;;;;;4937965;29;20030;-70
2023/07/07 11:42:35;;;;;;;11.15;9.10;;;32.40;50.90;;;;;;4968541;28;20019;-69
2023/07/07 11:45:10;;;;;;;;;;;32.10;51.40;;;;;;4938161;29;20519;-70
2023/07/07 11:47:55;;;;;;;11.02;7.72;;;32.00;53.20;;;;;;4938636;29;19914;-69
2023/07/07 11:50:41;;;;;;;8.25;6.47;;;31.90;52.20;;;;;;4938403;29;20392;-71
2023/07/07 11:53:10;;;;;;;;;;;31.50;51.40;;;;;;4955203;29;20039;-70
2023/07/07 11:56:08;;;;;;;8.27;6.72;;;31.50;51.80;;;;;;4954596;29;19911;-70
2023/07/07 11:58:58;;;;;;;10.55;6.85;;;31.40;50.90;;;;;;4955317;29;20140;-70
2023/07/07 12:01:38;;;;;;;14.50;7.93;;;31.30;51.10;;;;;;4937498;29;20089;-70
2023/07/07 12:04:43;;;;;;;10.25;7.07;;;31.30;51.50;;;;;;4954814;29;20398;-70
2023/07/07 12:07:14;;;;;;;12.65;7.40;;;31.40;50.50;;;;;;4930765;28;20547;-70
2023/07/07 12:09:50;;;;;;;8.32;6.68;;;31.40;49.90;;;;;;4974066;28;20041;-70
2023/07/07 12:12:26;;;;;;;10.73;6.95;;;31.40;50.00;;;;;;4974196;28;20022;-70
2023/07/07 12:15:00;;;;;;;9.45;6.53;;;31.40;49.90;;;;;;4973947;28;20365;-71
2023/07/07 12:17:32;;;;;;;10.73;7.18;;;31.40;50.20;;;;;;4973364;28;20022;-71
2023/07/07 12:20:26;;;;;;;10.80;6.60;;;31.40;50.60;;;;;;4973880;28;20031;-71
2023/07/07 12:22:51;;;;;;;9.18;6.88;;;31.40;50.90;;;;;;4974042;28;20495;-71
2023/07/07 12:25:20;;;;;;;9.00;6.90;;;31.50;50.00;;;;;;4956497;28;20031;-71
2023/07/07 12:27:47;;;;;;;11.68;7.10;;;31.40;49.00;;;;;;4956670;28;20058;-69
2023/07/07 12:30:22;;;;;;;8.73;6.57;;;31.30;51.30;;;;;;4972617;28;20027;-70
2023/07/07 12:32:47;;;;;;;9.45;7.55;;;31.20;51.70;;;;;;4973984;28;20153;-71
2023/07/07 12:35:28;;;;;;;12.00;6.85;;;31.20;51.30;;;;;;4973760;28;20113;-70
2023/07/07 12:38:09;;;;;;;10.57;7.22;;;31.30;49.80;;;;;;4958055;28;20042;-70
2023/07/07 12:40:42;;;;;;;11.93;7.53;;;31.40;49.70;;;;;;4978068;28;20030;-71
2023/07/07 12:43:27;;;;;;;12.40;6.82;;;31.50;49.60;;;;;;4960414;28;20053;-70
2023/07/07 12:45:52;;;;;;;10.38;6.63;;;31.50;48.60;;;;;;4960210;28;20027;-71
2023/07/07 12:48:22;;;;;;;9.00;6.82;;;31.50;48.50;;;;;;4960004;28;20531;-70
2023/07/07 12:50:48;;;;;;;10.68;6.68;;;31.50;48.40;;;;;;4976867;28;20483;-70
2023/07/07 12:53:29;;;;;;;8.88;6.57;;;31.50;49.00;;;;;;4956403;28;20046;-71
2023/07/07 12:56:05;;;;;;;9.25;6.93;;;31.60;48.10;;;;;;4957709;28;20034;-69
2023/07/07 12:58:33;;;;;;;10.75;6.90;;;31.60;48.80;;;;;;4977352;28;20030;-70
2023/07/07 13:01:09;;;;;;;11.68;7.43;;;31.70;48.70;;;;;;4960054;28;20496;-69
2023/07/07 13:03:42;;;;;;;9.77;6.50;;;31.70;48.70;;;;;;4940785;29;20393;-70
2023/07/07 13:06:36;;;;;;;8.68;6.63;;;31.70;49.00;;;;;;4940711;28;20232;-70
2023/07/07 13:09:16;;;;;;;10.15;6.45;;;31.80;48.60;;;;;;4973195;28;20026;-70
2023/07/07 13:11:53;;;;;;;9.05;6.68;;;31.90;48.80;;;;;;4959833;28;20034;-70
2023/07/07 13:14:29;;;;;;;9.80;6.80;;;31.90;48.30;;;;;;4959815;28;20083;-70
2023/07/07 13:16:57;;;;;;;8.55;6.35;;;32.00;47.40;;;;;;4960087;28;20050;-69
2023/07/07 13:19:23;;;;;;;11.52;6.95;;;31.90;47.20;;;;;;4977934;28;20072;-70
2023/07/07 13:21:51;;;;;;;9.20;6.50;;;31.80;47.30;;;;;;4978043;28;20030;-70
2023/07/07 13:24:20;;;;;;;8.10;6.28;;;31.80;47.50;;;;;;4978796;28;20019;-70
2023/07/07 13:26:45;;;;;;;7.85;6.07;;;31.90;47.00;;;;;;4978262;28;20030;-70
2023/07/07 13:29:11;;;;;;;11.25;6.80;;;31.90;47.20;;;;;;4978780;28;20022;-72
2023/07/07 13:31:38;;;;;;;8.23;6.88;;;32.00;47.50;;;;;;4979735;28;20432;-73
2023/07/07 13:34:06;;;;;;;10.98;6.57;;;32.00;47.40;;;;;;4963008;28;20031;-70
2023/07/07 13:36:32;;;;;;;8.45;5.97;;;32.10;47.30;;;;;;4976795;28;20031;-69
2023/07/07 13:38:57;;;;;;;9.60;6.55;;;31.80;47.40;;;;;;4977032;28;20027;-70
2023/07/07 13:41:24;;;;;;;8.48;6.50;;;31.80;48.10;;;;;;4977041;28;20030;-69
2023/07/07 13:43:54;;;;;;;11.70;6.82;;;31.80;47.90;;;;;;4976903;28;20023;-69
2023/07/07 13:46:25;;;;;;;11.05;6.60;;;31.90;48.50;;;;;;4959500;28;20031;-68
2023/07/07 13:48:55;;;;;;;9.82;6.13;;;32.00;48.10;;;;;;4982395;28;20034;-70
2023/07/07 13:51:27;;;;;;;6.93;5.68;;;32.20;48.30;;;;;;4978340;28;20090;-73
2023/07/07 13:53:54;;;;;;;8.48;6.30;;;32.30;47.70;;;;;;4960040;28;20035;-73
2023/07/07 13:56:20;;;;;;;12.48;7.10;;;32.30;48.10;;;;;;4959504;28;20114;-74
2023/07/07 13:58:48;;;;;;;13.20;6.60;;;32.40;48.00;;;;;;4976494;28;20057;-73
2023/07/07 14:01:36;;;;;;;9.18;6.03;;;32.40;47.70;;;;;;4976632;28;20054;-73
2023/07/07 14:04:08;;;;;;;11.38;6.32;;;32.40;47.80;;;;;;4960194;28;20023;-73
2023/07/07 14:06:34;;;;;;;9.38;6.55;;;32.40;47.60;;;;;;4976455;28;20018;-73
2023/07/07 14:09:00;;;;;;;10.27;6.47;;;32.40;47.30;;;;;;4958733;28;20042;-74
2023/07/07 14:11:27;;;;;;;8.68;6.30;;;32.30;47.90;;;;;;4975537;28;20022;-73
2023/07/07 14:13:59;;;;;;;9.43;6.80;;;32.30;47.20;;;;;;4965673;28;20023;-70
2023/07/07 14:16:38;;;;;;;10.02;7.22;;;32.30;47.70;;;;;;4976150;28;20082;-74
2023/07/07 14:19:18;;;;;;;9.10;6.47;;;32.50;48.80;;;;;;4976265;28;20066;-75
2023/07/07 14:21:44;;;;;;;13.18;6.95;;;32.60;48.30;;;;;;4975511;28;20027;-72
2023/07/07 14:24:16;;;;;;;9.73;5.95;;;32.50;47.70;;;;;;4975585;28;20031;-70
2023/07/07 14:26:43;;;;;;;13.43;7.10;;;32.50;48.00;;;;;;4958595;28;20476;-72
2023/07/07 14:29:20;;;;;;;9.15;6.57;;;32.60;48.40;;;;;;4976363;28;20436;-71
2023/07/07 14:31:46;;;;;;;10.27;6.95;;;32.60;48.20;;;;;;4960097;28;20130;-70
2023/07/07 14:34:13;;;;;;;11.18;6.85;;;32.70;48.40;;;;;;4976939;28;20029;-70
2023/07/07 14:36:44;;;;;;;11.73;6.22;;;32.60;47.80;;;;;;4959326;28;20026;-75
2023/07/07 14:39:29;;;;;;;9.05;7.00;;;32.50;48.00;;;;;;4944983;29;20030;-72
2023/07/07 14:41:57;;;;;;;12.07;7.05;;;32.50;48.30;;;;;;4939634;29;20126;-72
2023/07/07 14:44:49;;;;;;;8.45;6.80;;;32.50;48.40;;;;;;4939669;29;20035;-73
2023/07/07 14:47:28;;;;;;;10.02;6.75;;;32.60;48.10;;;;;;4963296;28;20110;-74
2023/07/07 14:49:55;;;;;;;9.07;6.80;;;32.50;48.00;;;;;;4961580;28;20030;-74
2023/07/07 14:52:38;;;;;;;8.10;6.63;;;32.50;48.20;;;;;;4974849;28;20542;-73
2023/07/07 14:55:12;;;;;;;10.55;6.93;;;32.60;48.40;;;;;;4958666;28;20035;-74
2023/07/07 14:57:39;;;;;;;11.05;7.18;;;32.50;48.30;;;;;;4974220;28;20022;-73
2023/07/07 15:00:25;;;;;;;12.40;6.63;;;32.60;48.10;;;;;;4957366;28;20074;-73
2023/07/07 15:02:50;;;;;;;12.52;7.10;;;32.50;48.20;;;;;;4952517;28;20081;-72
2023/07/07 15:05:23;;;;;;;11.07;6.95;;;32.50;48.70;;;;;;4975643;28;20430;-72
2023/07/07 15:07:49;;;;;;;9.38;6.72;;;32.50;48.20;;;;;;4975163;28;20030;-72
2023/07/07 15:10:16;;;;;;;10.23;6.88;;;32.60;48.20;;;;;;4958145;28;20464;-72
2023/07/07 15:12:42;;;;;;;11.18;7.25;;;32.60;47.90;;;;;;4958135;28;20391;-72
2023/07/07 15:15:12;;;;;;;11.52;7.47;;;32.60;47.80;;;;;;4958519;28;20054;-72
2023/07/07 15:17:38;;;;;;;12.63;7.88;;;32.50;48.00;;;;;;4958005;28;20023;-71
2023/07/07 15:20:15;;;;;;;9.18;6.70;;;32.40;47.90;;;;;;4957898;28;20029;-72
2023/07/07 15:22:41;;;;;;;9.52;7.25;;;32.50;47.80;;;;;;4962682;28;20014;-73
2023/07/07 15:25:07;;;;;;;10.77;6.93;;;32.40;48.00;;;;;;4969205;28;20054;-72
2023/07/07 15:27:32;;;;;;;8.88;6.50;;;32.40;48.00;;;;;;4958227;28;20042;-71
2023/07/07 15:29:58;;;;;;;9.07;6.80;;;32.30;47.80;;;;;;4974793;28;20031;-73
2023/07/07 15:32:23;;;;;;;9.60;6.72;;;32.40;48.60;;;;;;4958177;28;20384;-74
2023/07/07 15:34:49;;;;;;;9.15;7.00;;;32.30;48.30;;;;;;4958450;28;20061;-74
2023/07/07 15:37:14;;;;;;;9.55;7.13;;;32.30;49.10;;;;;;4957804;28;20341;-74
2023/07/07 15:39:40;;;;;;;17.17;6.78;;;32.20;48.40;;;;;;4957845;28;20030;-74
2023/07/07 15:42:13;;;;;;;9.40;7.00;;;32.10;48.50;;;;;;4957879;28;20034;-76
2023/07/07 15:44:38;;;;;;;11.77;6.75;;;32.00;48.00;;;;;;4958188;28;20042;-75
2023/07/07 15:47:15;;;;;;;9.57;6.82;;;32.00;48.60;;;;;;4976291;28;20019;-74
2023/07/07 15:49:40;;;;;;;10.63;7.13;;;32.10;48.20;;;;;;4958146;28;20034;-74
2023/07/07 15:52:13;;;;;;;8.45;6.85;;;32.20;48.20;;;;;;4957800;28;20027;-74
2023/07/07 15:54:38;;;;;;;13.95;7.35;;;32.30;48.50;;;;;;4974888;28;20035;-74
2023/07/07 15:57:09;;;;;;;10.00;7.28;;;32.30;48.20;;;;;;4958128;28;20026;-75
2023/07/07 15:59:35;;;;;;;12.20;7.57;;;32.30;47.80;;;;;;4957397;28;20033;-75
2023/07/07 16:02:00;;;;;;;11.82;7.22;;;32.30;48.10;;;;;;4939087;29;20023;-74
2023/07/07 16:04:26;;;;;;;9.90;7.47;;;32.20;48.10;;;;;;4939258;29;20126;-75
2023/07/07 16:06:53;;;;;;;11.90;7.85;;;32.20;48.60;;;;;;4955548;28;20027;-74
2023/07/07 16:09:22;;;;;;;10.82;7.15;;;32.20;48.30;;;;;;4951256;29;20031;-75
2023/07/07 16:11:47;;;;;;;10.00;7.68;;;32.10;47.90;;;;;;4974573;28;20431;-75
2023/07/07 16:14:15;;;;;;;11.05;7.38;;;32.00;47.80;;;;;;4961342;28;20550;-75
2023/07/07 16:16:43;;;;;;;12.68;8.23;;;32.00;47.80;;;;;;4961373;28;20082;-75
2023/07/07 16:19:18;;;;;;;9.88;7.40;;;32.00;47.70;;;;;;4984623;28;20022;-74
2023/07/07 16:21:44;;;;;;;10.52;7.32;;;31.90;47.90;;;;;;4972510;28;20099;-75
2023/07/07 16:24:10;;;;;;;11.60;7.70;;;31.90;47.90;;;;;;4964151;28;20023;-75
2023/07/07 16:26:40;;;;;;;9.30;7.07;;;31.90;47.90;;;;;;4962519;28;20166;-75
2023/07/07 16:29:17;;;;;;;11.65;7.03;;;31.90;48.10;;;;;;4961545;28;20034;-76
2023/07/07 16:31:43;;;;;;;11.00;7.93;;;31.90;48.50;;;;;;4963102;28;20027;-75
2023/07/07 16:34:13;;;;;;;14.65;8.15;;;31.80;48.30;;;;;;4979123;28;20027;-75
2023/07/07 16:36:39;;;;;;;14.30;7.90;;;31.70;48.40;;;;;;4958420;28;20527;-72
2023/07/07 16:39:12;;;;;;;10.27;8.10;;;31.70;48.40;;;;;;4950009;29;20027;-71
2023/07/07 16:41:37;;;;;;;11.00;7.50;;;31.80;48.40;;;;;;4959064;29;20070;-72
2023/07/07 16:44:03;;;;;;;12.48;7.93;;;31.80;48.10;;;;;;4941814;29;20031;-71
2023/07/07 16:46:29;;;;;;;10.70;6.95;;;31.70;48.50;;;;;;4956412;28;20070;-72
2023/07/07 16:48:54;;;;;;;13.63;7.45;;;31.70;48.50;;;;;;4960898;28;20051;-70
2023/07/07 16:51:26;;;;;;;9.57;7.22;;;31.60;48.50;;;;;;4960396;28;20117;-69
2023/07/07 16:53:52;;;;;;;11.27;7.90;;;31.50;48.50;;;;;;4977628;28;20027;-69
2023/07/07 16:56:23;;;;;;;11.02;7.65;;;31.40;48.20;;;;;;4960323;28;20515;-69
2023/07/07 16:58:49;;;;;;;12.30;8.10;;;31.40;48.60;;;;;;4957628;28;20042;-69
2023/07/07 17:01:16;;;;;;;10.90;8.13;;;31.30;48.50;;;;;;4960129;28;20388;-69
2023/07/07 17:03:42;;;;;;;11.48;7.93;;;31.20;49.00;;;;;;4977614;28;20094;-69